首页
METAR-TAF:

METAR-TAF

机场 :

Flying Cloud Airport

明尼阿波利斯 / Eden Prairie, 明尼蘇達州, 美国

纬度: 44-49-56N, 经度: 093-28-13W, 海拔: 287米

当前天气观测

该预报发布于39分钟前的14:53 UTC
风速5节,风向西北
温度 20°C
湿度 60%
气压 1015 hPa
能見度: 16.1公里
少量云层高于2600英尺

METAR: KFCM 181453Z 31005KT 10SM FEW026 20/12 A2998 RMK AO2 SLP149 T02000117 50000

时间: 10:32 (15:32 UTC)


TAF: 丢失

超过4000个机场的气象观测和天气预报(METAR&TAF报告)。

可查询的气象台以黄色和红色小点在地图上表示。

将鼠标移到小点上方,可查看气象台名称。

然后点击查看天气观测和预报。

如需切换地图:点击带黑十字的绿色按钮放大地图;点击带横线的绿色按钮缩小地图;或者点击绿色箭头查看邻近地区的地图。


METAR-TAF: